Time;durP1;ratioP1;P1;durP2;ratioP2;P2;SDS_P1;SDS_P2;PMS_P1;PMS_P2;Temp;Humidity;BMP_temperature;BMP_pressure;BME280_temperature;BME280_humidity;BME280_pressure;Samples;Min_cycle;Max_cycle;Signal;HPM_P1;HPM_P2
2023/01/28 00:01:12;;;;;;;35.20;29.40;;;2.20;99.90;;;;;;4978210;28;20207;-44
2023/01/28 00:03:39;;;;;;;34.33;29.20;;;2.20;99.90;;;;;;4971853;28;21287;-43
2023/01/28 00:06:07;;;;;;;36.65;30.00;;;2.10;99.90;;;;;;4970086;28;21126;-44
2023/01/28 00:08:33;;;;;;;34.13;27.38;;;2.10;99.90;;;;;;4973765;28;20352;-44
2023/01/28 00:11:00;;;;;;;37.27;29.00;;;2.10;99.90;;;;;;4980648;28;20198;-45
2023/01/28 00:13:26;;;;;;;34.90;28.63;;;2.10;99.90;;;;;;4975654;28;20196;-45
2023/01/28 00:16:01;;;;;;;32.20;28.67;;;2.10;99.90;;;;;;4969844;28;20553;-45
2023/01/28 00:18:27;;;;;;;33.33;27.60;;;2.10;99.90;;;;;;4960034;28;20222;-44
2023/01/28 00:21:02;;;;;;;33.72;27.77;;;2.10;99.90;;;;;;4984419;28;20194;-44
2023/01/28 00:23:31;;;;;;;31.15;27.15;;;2.10;99.90;;;;;;4981137;28;20189;-45
2023/01/28 00:26:10;;;;;;;31.58;27.08;;;2.10;99.90;;;;;;4983881;28;20193;-46
2023/01/28 00:28:35;;;;;;;29.85;26.70;;;2.10;99.90;;;;;;4976358;28;20194;-48
2023/01/28 00:31:08;;;;;;;30.60;26.53;;;2.10;99.90;;;;;;4984461;28;20205;-45
2023/01/28 00:33:35;;;;;;;29.23;25.85;;;2.10;99.90;;;;;;4978623;28;20183;-47
2023/01/28 00:36:02;;;;;;;29.08;26.05;;;2.10;99.90;;;;;;4984195;28;20293;-46
2023/01/28 00:38:28;;;;;;;29.27;25.58;;;2.10;99.90;;;;;;4972237;28;20210;-45
2023/01/28 00:40:55;;;;;;;28.38;25.35;;;2.10;99.90;;;;;;4984155;28;20249;-47
2023/01/28 00:43:21;;;;;;;26.13;23.63;;;2.10;99.90;;;;;;4975458;28;20183;-49
2023/01/28 00:45:46;;;;;;;23.20;21.13;;;2.10;99.90;;;;;;4975530;28;20202;-42
2023/01/28 00:48:12;;;;;;;23.50;21.37;;;2.10;99.90;;;;;;4975024;28;20444;-44
2023/01/28 00:50:39;;;;;;;21.63;19.70;;;2.10;99.90;;;;;;4977555;28;20199;-44
2023/01/28 00:53:04;;;;;;;21.85;19.95;;;2.10;99.90;;;;;;4976814;28;20190;-43
2023/01/28 00:55:30;;;;;;;22.10;20.20;;;2.10;99.90;;;;;;4973838;28;20203;-47
2023/01/28 00:57:55;;;;;;;22.00;20.10;;;2.10;99.90;;;;;;4981931;28;20221;-46
2023/01/28 01:00:26;;;;;;;20.57;18.87;;;2.00;99.90;;;;;;4972453;28;20190;-45
2023/01/28 01:02:52;;;;;;;23.05;20.90;;;2.00;99.90;;;;;;4973976;28;20188;-48
2023/01/28 01:05:17;;;;;;;22.75;20.65;;;1.90;99.90;;;;;;4980549;28;20187;-43
2023/01/28 01:07:43;;;;;;;22.00;19.93;;;1.90;99.90;;;;;;4979022;28;20193;-45
2023/01/28 01:10:11;;;;;;;22.43;20.43;;;1.80;99.90;;;;;;4984044;28;20382;-48
2023/01/28 01:12:37;;;;;;;22.63;20.73;;;1.80;99.90;;;;;;4977167;28;20192;-45
2023/01/28 01:15:03;;;;;;;22.60;20.60;;;1.80;99.90;;;;;;4969664;28;20898;-44
2023/01/28 01:17:30;;;;;;;23.65;21.42;;;1.70;99.90;;;;;;4968531;28;20188;-45
2023/01/28 01:19:56;;;;;;;23.65;21.45;;;1.80;99.90;;;;;;4963233;28;20186;-46
2023/01/28 01:22:22;;;;;;;24.63;22.50;;;1.70;99.90;;;;;;4973916;28;20211;-47
2023/01/28 01:24:47;;;;;;;24.60;22.40;;;1.70;99.90;;;;;;4974215;28;20191;-47
2023/01/28 01:27:14;;;;;;;24.40;22.10;;;1.70;99.90;;;;;;4957021;28;20452;-45
2023/01/28 01:29:39;;;;;;;23.95;21.73;;;1.70;99.90;;;;;;4979481;28;20241;-46
2023/01/28 01:32:05;;;;;;;23.53;21.53;;;1.70;99.90;;;;;;4973982;28;20260;-46
2023/01/28 01:34:30;;;;;;;23.20;21.20;;;1.70;99.90;;;;;;4968288;28;20232;-46
2023/01/28 01:36:56;;;;;;;24.67;22.27;;;1.70;99.90;;;;;;4974044;28;20197;-45
2023/01/28 01:39:22;;;;;;;23.87;21.67;;;1.70;99.90;;;;;;4981215;28;20302;-47
2023/01/28 01:41:47;;;;;;;25.90;23.27;;;1.60;99.90;;;;;;4963959;28;20266;-44
2023/01/28 01:44:50;;;;;;;25.17;22.63;;;1.60;99.90;;;;;;4963409;28;20214;-46
2023/01/28 01:47:17;;;;;;;25.20;22.70;;;1.70;99.90;;;;;;4976734;28;20196;-44
2023/01/28 01:49:43;;;;;;;25.80;23.38;;;1.70;99.90;;;;;;4963407;28;20201;-45
2023/01/28 01:52:17;;;;;;;25.63;23.23;;;1.70;99.90;;;;;;4979484;28;20573;-42
2023/01/28 01:54:47;;;;;;;24.48;22.25;;;1.70;99.90;;;;;;4968096;28;20217;-44
2023/01/28 01:57:18;;;;;;;26.42;23.92;;;1.60;99.90;;;;;;4966569;28;20205;-45
2023/01/28 01:59:44;;;;;;;25.02;22.63;;;1.70;99.90;;;;;;4975703;28;20571;-43
2023/01/28 02:02:11;;;;;;;25.37;23.00;;;1.70;99.90;;;;;;4967787;28;20434;-44
2023/01/28 02:04:41;;;;;;;25.75;23.15;;;1.70;99.90;;;;;;4971884;28;20437;-47
2023/01/28 02:07:09;;;;;;;26.90;24.20;;;1.70;99.90;;;;;;4969074;28;20198;-48
2023/01/28 02:09:37;;;;;;;24.95;22.63;;;1.80;99.90;;;;;;4966859;28;20608;-45
2023/01/28 02:12:07;;;;;;;26.65;23.90;;;1.80;99.90;;;;;;4980979;28;20190;-44
2023/01/28 02:14:37;;;;;;;25.42;23.02;;;1.80;99.90;;;;;;4962654;28;20202;-45
2023/01/28 02:17:03;;;;;;;25.00;22.80;;;1.70;99.90;;;;;;4976929;28;20276;-46
2023/01/28 02:19:41;;;;;;;25.65;23.15;;;1.80;99.90;;;;;;4967718;28;20213;-44
2023/01/28 02:22:22;;;;;;;24.73;22.42;;;1.70;99.90;;;;;;4977457;28;20535;-46
2023/01/28 02:24:56;;;;;;;24.42;22.00;;;1.70;99.90;;;;;;4963237;28;20190;-46
2023/01/28 02:27:41;;;;;;;25.75;23.25;;;1.70;99.90;;;;;;4972690;28;20565;-46
2023/01/28 02:30:34;;;;;;;24.67;22.27;;;1.60;99.90;;;;;;4979545;28;20186;-46
2023/01/28 02:33:05;;;;;;;24.65;22.15;;;1.60;99.90;;;;;;4968210;28;20254;-43
2023/01/28 02:35:37;;;;;;;24.13;21.92;;;1.70;99.90;;;;;;4967702;28;20415;-50
2023/01/28 02:38:06;;;;;;;23.88;21.63;;;1.60;99.90;;;;;;4974971;28;20466;-45
2023/01/28 02:41:00;;;;;;;25.38;22.88;;;1.60;99.90;;;;;;4965575;28;20226;-44
2023/01/28 02:43:45;;;;;;;23.50;21.27;;;1.60;99.90;;;;;;4976979;28;20200;-45
2023/01/28 02:49:39;;;;;;;23.35;21.25;;;1.70;99.90;;;;;;4980498;28;20250;-44
2023/01/28 02:55:47;;;;;;;26.33;22.52;;;1.60;99.90;;;;;;4975217;28;20279;-46
2023/01/28 02:58:28;;;;;;;25.17;22.70;;;1.70;99.90;;;;;;4979126;28;20228;-46
2023/01/28 03:01:00;;;;;;;24.45;22.00;;;1.60;99.90;;;;;;4961789;28;20308;-44
2023/01/28 03:03:49;;;;;;;24.80;22.48;;;1.60;99.90;;;;;;4975762;28;20217;-47
2023/01/28 03:06:19;;;;;;;24.88;22.45;;;1.60;99.90;;;;;;4963830;28;20202;-44
2023/01/28 03:36:55;;;;;;;25.50;22.90;;;1.70;99.90;;;;;;4967472;28;20759;-44
2023/01/28 03:39:28;;;;;;;23.98;21.85;;;1.60;99.90;;;;;;4975918;28;20683;-50
2023/01/28 03:42:01;;;;;;;24.20;21.60;;;1.70;99.90;;;;;;4968661;28;20257;-49
2023/01/28 03:47:12;;;;;;;24.00;21.70;;;1.70;99.90;;;;;;4973664;28;20703;-44
2023/01/28 03:49:49;;;;;;;24.15;22.05;;;1.60;99.90;;;;;;4968880;28;20285;-45
2023/01/28 03:52:18;;;;;;;23.90;21.55;;;1.60;99.90;;;;;;4971612;28;20209;-43
2023/01/28 03:54:47;;;;;;;24.75;22.48;;;1.60;99.90;;;;;;4969590;28;20634;-46
2023/01/28 03:57:17;;;;;;;25.40;23.00;;;1.70;99.90;;;;;;4976689;28;20196;-44
2023/01/28 03:59:43;;;;;;;25.33;23.02;;;1.70;99.90;;;;;;4974355;28;20224;-45
2023/01/28 04:02:10;;;;;;;24.52;22.17;;;1.70;99.90;;;;;;4977781;28;20194;-48
2023/01/28 04:04:39;;;;;;;23.33;21.30;;;1.70;99.90;;;;;;4975404;28;20192;-46
2023/01/28 04:07:09;;;;;;;23.58;21.48;;;1.70;99.90;;;;;;4977537;28;20272;-46
2023/01/28 04:09:36;;;;;;;24.70;22.40;;;1.70;99.90;;;;;;4967597;28;20178;-45
2023/01/28 04:12:01;;;;;;;22.67;20.48;;;1.60;99.90;;;;;;4974673;28;20200;-46
2023/01/28 04:14:27;;;;;;;21.90;19.80;;;1.60;99.90;;;;;;4968465;28;20666;-47
2023/01/28 04:16:53;;;;;;;22.10;20.17;;;1.60;99.90;;;;;;4969972;28;20196;-46
2023/01/28 04:19:20;;;;;;;22.40;20.45;;;1.50;99.90;;;;;;4962463;28;20543;-43
2023/01/28 04:21:46;;;;;;;22.10;20.20;;;1.40;99.90;;;;;;4966213;28;21154;-43
2023/01/28 04:24:12;;;;;;;22.58;20.70;;;1.30;99.90;;;;;;4961811;28;20226;-46
2023/01/28 04:26:38;;;;;;;22.80;20.80;;;1.30;99.90;;;;;;4968385;28;20746;-46
2023/01/28 04:29:04;;;;;;;22.77;20.75;;;1.30;99.90;;;;;;4971582;28;20487;-48
2023/01/28 04:31:30;;;;;;;21.88;19.85;;;1.20;99.90;;;;;;4971230;28;20196;-43
2023/01/28 04:33:56;;;;;;;22.95;20.75;;;1.20;99.90;;;;;;4975093;28;20476;-44
2023/01/28 04:36:22;;;;;;;23.48;21.35;;;1.20;99.90;;;;;;4970343;28;20187;-45
2023/01/28 04:38:48;;;;;;;23.02;21.00;;;1.20;99.90;;;;;;4971315;28;20214;-44
2023/01/28 04:41:13;;;;;;;22.60;20.40;;;1.20;99.90;;;;;;4973279;28;20317;-44
2023/01/28 04:43:39;;;;;;;22.83;20.83;;;1.20;99.90;;;;;;4972864;28;20229;-44
2023/01/28 04:46:05;;;;;;;23.83;21.63;;;1.20;99.90;;;;;;4976189;28;20196;-45
2023/01/28 04:48:31;;;;;;;21.37;19.47;;;1.20;99.90;;;;;;4971173;28;20276;-47
2023/01/28 04:50:57;;;;;;;20.90;18.90;;;1.20;99.90;;;;;;4979463;28;20439;-45
2023/01/28 04:53:22;;;;;;;20.03;18.33;;;1.20;99.90;;;;;;4964785;28;20437;-48
2023/01/28 04:55:48;;;;;;;19.87;18.07;;;1.00;99.90;;;;;;4977732;28;20198;-44
2023/01/28 04:58:14;;;;;;;20.90;19.10;;;1.00;99.90;;;;;;4975987;28;20224;-44
2023/01/28 05:00:39;;;;;;;19.60;17.97;;;1.00;99.90;;;;;;4958691;28;20204;-47
2023/01/28 05:03:05;;;;;;;20.40;18.40;;;0.90;99.90;;;;;;4967238;28;20193;-46
2023/01/28 05:05:31;;;;;;;20.47;18.77;;;0.80;99.90;;;;;;4981168;28;20199;-46
2023/01/28 05:07:57;;;;;;;18.30;16.90;;;0.80;99.90;;;;;;4978150;28;20223;-44
2023/01/28 05:10:24;;;;;;;18.55;16.95;;;0.80;99.90;;;;;;4982674;28;20238;-45
2023/01/28 05:12:49;;;;;;;19.48;17.88;;;0.70;99.90;;;;;;4967262;28;20190;-45
2023/01/28 05:15:16;;;;;;;20.97;19.07;;;0.70;99.90;;;;;;4974145;28;20287;-46
2023/01/28 05:17:42;;;;;;;19.90;18.20;;;0.70;99.90;;;;;;4968167;28;20182;-44
2023/01/28 05:20:10;;;;;;;19.27;17.77;;;0.70;99.90;;;;;;4981940;28;20188;-43
2023/01/28 05:22:35;;;;;;;20.00;18.40;;;0.60;99.90;;;;;;4977214;28;20186;-44
2023/01/28 05:25:03;;;;;;;19.90;18.30;;;0.60;99.90;;;;;;4970996;28;20212;-49
2023/01/28 05:27:29;;;;;;;20.35;18.77;;;0.70;99.90;;;;;;4971131;28;20611;-47
2023/01/28 05:29:55;;;;;;;19.25;17.73;;;0.70;99.90;;;;;;4982384;28;20184;-46
2023/01/28 05:32:21;;;;;;;19.87;18.17;;;0.70;99.90;;;;;;4973715;28;20211;-44
2023/01/28 05:34:46;;;;;;;19.70;18.00;;;0.70;99.90;;;;;;4979485;28;20422;-46
2023/01/28 05:37:12;;;;;;;20.43;18.70;;;0.60;99.90;;;;;;4973292;28;20188;-44
2023/01/28 05:39:38;;;;;;;21.30;19.50;;;0.60;99.90;;;;;;4977953;28;20222;-44
2023/01/28 05:42:03;;;;;;;20.80;19.20;;;0.60;99.90;;;;;;4973222;28;20257;-44
2023/01/28 05:44:29;;;;;;;21.40;19.40;;;0.50;99.90;;;;;;4974216;28;20300;-44
2023/01/28 05:46:54;;;;;;;20.67;18.97;;;0.50;99.90;;;;;;4979553;28;20594;-46
2023/01/28 05:49:21;;;;;;;20.90;19.13;;;0.50;99.90;;;;;;4982012;28;20290;-44
2023/01/28 05:51:47;;;;;;;20.20;18.60;;;0.40;99.90;;;;;;4964629;28;20260;-45
2023/01/28 05:54:13;;;;;;;21.02;19.23;;;0.40;99.90;;;;;;4964239;28;20197;-47
2023/01/28 05:56:39;;;;;;;20.20;18.50;;;0.30;99.90;;;;;;4976623;28;20181;-47
2023/01/28 05:59:05;;;;;;;20.02;18.40;;;0.30;99.90;;;;;;4974007;28;20278;-47
2023/01/28 06:01:30;;;;;;;20.27;18.67;;;0.30;99.90;;;;;;4971813;28;20190;-44
2023/01/28 06:03:56;;;;;;;19.50;17.90;;;0.30;99.90;;;;;;4973820;28;20597;-43
2023/01/28 06:06:22;;;;;;;18.00;16.70;;;0.30;99.90;;;;;;4972174;28;20208;-45
2023/01/28 06:08:47;;;;;;;19.20;17.70;;;0.30;99.90;;;;;;4975433;28;20259;-46
2023/01/28 06:11:13;;;;;;;18.93;17.43;;;0.20;99.90;;;;;;4980271;28;20184;-48
2023/01/28 06:13:40;;;;;;;19.77;18.00;;;0.30;99.90;;;;;;4979350;28;20482;-45
2023/01/28 06:16:06;;;;;;;18.92;17.30;;;0.30;99.90;;;;;;4972595;28;20234;-47
2023/01/28 06:18:32;;;;;;;20.30;18.60;;;0.30;99.90;;;;;;4977706;28;20569;-47
2023/01/28 06:20:57;;;;;;;19.07;17.60;;;0.30;99.90;;;;;;4967630;28;20193;-46
2023/01/28 06:23:23;;;;;;;20.10;18.60;;;0.30;99.90;;;;;;4967936;28;20238;-44
2023/01/28 06:25:53;;;;;;;19.80;18.10;;;0.30;99.90;;;;;;4974910;28;20221;-45
2023/01/28 06:28:19;;;;;;;19.70;18.08;;;0.40;99.90;;;;;;4967624;28;20252;-46
2023/01/28 06:30:48;;;;;;;19.33;17.80;;;0.30;99.90;;;;;;4968662;28;20192;-46
2023/01/28 06:33:14;;;;;;;20.52;18.63;;;0.30;99.90;;;;;;4969181;28;20193;-44
2023/01/28 06:35:39;;;;;;;19.37;17.97;;;0.20;99.90;;;;;;4968463;28;20552;-44
2023/01/28 06:38:05;;;;;;;19.20;17.80;;;0.20;99.90;;;;;;4966014;28;21010;-45
2023/01/28 06:40:31;;;;;;;19.60;17.90;;;0.10;99.90;;;;;;4977084;28;20966;-47
2023/01/28 06:42:56;;;;;;;21.40;19.67;;;0.20;99.90;;;;;;4971591;28;20271;-45
2023/01/28 06:45:22;;;;;;;19.53;17.80;;;0.10;99.90;;;;;;4976676;28;20243;-44
2023/01/28 06:47:47;;;;;;;20.03;18.27;;;0.10;99.90;;;;;;4972550;28;20186;-43
2023/01/28 06:50:13;;;;;;;19.87;18.27;;;0.10;99.90;;;;;;4973081;28;20808;-45
2023/01/28 06:52:40;;;;;;;19.73;18.17;;;0.10;99.90;;;;;;4972326;28;20611;-46
2023/01/28 06:55:06;;;;;;;17.65;16.33;;;0.10;99.90;;;;;;4965525;28;20564;-43
2023/01/28 06:57:32;;;;;;;17.25;16.15;;;0.10;99.90;;;;;;4966827;28;20620;-47
2023/01/28 06:59:57;;;;;;;17.80;16.40;;;0.10;99.90;;;;;;4966649;28;20343;-44
2023/01/28 07:02:23;;;;;;;18.40;17.00;;;0.00;99.90;;;;;;4966736;28;20214;-44
2023/01/28 07:04:49;;;;;;;17.37;16.17;;;0.00;99.90;;;;;;4971392;28;20186;-48
2023/01/28 07:07:15;;;;;;;17.30;16.03;;;0.00;99.90;;;;;;4977903;28;20625;-46
2023/01/28 07:09:40;;;;;;;17.13;15.93;;;-0.10;99.90;;;;;;4980590;28;20184;-48
2023/01/28 07:12:06;;;;;;;16.53;15.43;;;0.00;99.90;;;;;;4977317;28;20444;-44
2023/01/28 07:14:32;;;;;;;17.07;15.87;;;0.00;99.90;;;;;;4980011;28;20269;-44
2023/01/28 07:16:57;;;;;;;16.30;15.10;;;0.00;99.90;;;;;;4968940;28;20498;-46
2023/01/28 07:19:23;;;;;;;15.53;14.37;;;-0.10;99.90;;;;;;4973759;28;20338;-44
2023/01/28 07:21:49;;;;;;;16.70;15.40;;;-0.10;99.90;;;;;;4979587;28;20195;-47
2023/01/28 07:24:14;;;;;;;17.00;15.80;;;-0.10;99.90;;;;;;4974805;28;20600;-45
2023/01/28 07:26:40;;;;;;;20.30;18.90;;;-0.20;99.90;;;;;;4965981;28;20181;-46
2023/01/28 07:29:05;;;;;;;19.30;18.00;;;-0.20;99.90;;;;;;4971004;28;20193;-46
2023/01/28 07:31:31;;;;;;;16.33;15.27;;;-0.10;99.90;;;;;;4960979;28;20271;-44
2023/01/28 07:33:57;;;;;;;16.90;15.40;;;-0.20;99.90;;;;;;4973915;28;20184;-43
2023/01/28 07:36:22;;;;;;;18.47;17.03;;;-0.20;99.90;;;;;;4969567;28;20251;-46
2023/01/28 07:38:48;;;;;;;50.27;44.90;;;-0.20;99.90;;;;;;4967456;28;20700;-45
2023/01/28 07:41:13;;;;;;;121.70;92.33;;;-0.20;99.90;;;;;;4969426;28;20236;-45
2023/01/28 07:43:39;;;;;;;24.70;22.50;;;-0.20;99.90;;;;;;4964277;28;20225;-48
2023/01/28 07:46:04;;;;;;;19.37;17.50;;;-0.10;99.90;;;;;;4970003;28;20175;-46
2023/01/28 07:48:30;;;;;;;61.20;54.70;;;-0.10;99.90;;;;;;4974716;28;20189;-48
2023/01/28 07:50:59;;;;;;;16.80;15.70;;;0.00;99.90;;;;;;4974181;28;20191;-47
2023/01/28 07:53:24;;;;;;;21.17;19.48;;;0.00;99.90;;;;;;4966181;28;20472;-50
2023/01/28 07:55:50;;;;;;;18.47;16.93;;;0.00;99.90;;;;;;4968512;28;20315;-48
2023/01/28 07:58:15;;;;;;;17.60;16.20;;;-0.10;99.90;;;;;;4970434;28;20208;-48
2023/01/28 08:00:41;;;;;;;16.43;15.23;;;-0.10;99.90;;;;;;4968160;28;20215;-48
2023/01/28 08:03:15;;;;;;;17.30;16.00;;;0.00;99.90;;;;;;4965086;28;20268;-44
2023/01/28 08:05:50;;;;;;;15.70;14.70;;;-0.10;99.90;;;;;;4970349;28;20764;-47
2023/01/28 08:08:16;;;;;;;19.02;17.52;;;0.00;99.90;;;;;;4965899;28;20523;-44
2023/01/28 08:10:42;;;;;;;19.53;18.00;;;0.00;99.90;;;;;;4966416;28;20199;-45
2023/01/28 08:13:09;;;;;;;17.45;16.15;;;0.10;99.90;;;;;;4969926;28;20546;-46
2023/01/28 08:15:35;;;;;;;15.18;14.18;;;0.10;99.90;;;;;;4962941;28;20220;-44
2023/01/28 08:18:03;;;;;;;14.98;14.05;;;0.10;99.90;;;;;;4970450;28;20223;-46
2023/01/28 08:20:29;;;;;;;14.50;13.50;;;0.20;99.90;;;;;;4962192;28;20195;-47
2023/01/28 08:23:33;;;;;;;14.23;13.25;;;0.30;99.90;;;;;;4954116;28;20185;-44
2023/01/28 08:25:59;;;;;;;15.15;14.05;;;0.40;99.90;;;;;;4911780;29;20242;-48
2023/01/28 08:28:25;;;;;;;19.95;18.25;;;0.40;99.90;;;;;;4954397;28;20673;-45
2023/01/28 08:30:51;;;;;;;23.73;21.37;;;0.50;99.90;;;;;;4977592;28;20246;-44
2023/01/28 08:33:18;;;;;;;15.40;14.30;;;0.50;99.90;;;;;;4959497;28;21798;-45
2023/01/28 08:35:44;;;;;;;15.38;14.27;;;0.50;99.90;;;;;;4961490;28;20201;-45
2023/01/28 08:38:11;;;;;;;14.60;13.70;;;0.50;99.90;;;;;;4963593;28;20289;-45
2023/01/28 08:40:37;;;;;;;18.90;17.27;;;0.60;99.90;;;;;;4968176;28;20577;-43
2023/01/28 08:43:03;;;;;;;19.97;18.33;;;0.60;99.90;;;;;;4978158;28;20181;-45
2023/01/28 08:45:30;;;;;;;17.60;16.20;;;0.60;99.90;;;;;;4969385;28;20186;-44
2023/01/28 08:47:57;;;;;;;23.85;21.60;;;0.60;99.90;;;;;;4983899;28;20188;-46
2023/01/28 08:50:25;;;;;;;22.88;20.83;;;0.60;99.90;;;;;;4982860;28;20691;-45
2023/01/28 08:53:01;;;;;;;15.82;14.82;;;0.70;99.90;;;;;;4983072;28;20201;-43
2023/01/28 08:55:27;;;;;;;19.45;17.70;;;0.70;99.90;;;;;;4983307;28;20182;-44
2023/01/28 08:57:53;;;;;;;18.05;16.65;;;0.80;99.90;;;;;;4983468;28;20557;-44
2023/01/28 09:00:19;;;;;;;21.90;19.90;;;0.80;99.90;;;;;;4966752;28;20187;-43
2023/01/28 09:02:45;;;;;;;16.20;15.00;;;0.80;99.90;;;;;;4982062;28;20938;-46
2023/01/28 09:05:11;;;;;;;20.90;19.23;;;0.80;99.90;;;;;;4976539;28;20180;-45
2023/01/28 09:07:37;;;;;;;14.53;13.53;;;0.80;99.90;;;;;;4981372;28;20607;-43
2023/01/28 09:10:04;;;;;;;15.05;14.05;;;0.90;99.90;;;;;;4982607;28;20428;-47
2023/01/28 09:12:30;;;;;;;21.83;19.70;;;0.80;99.90;;;;;;4982710;28;20296;-46
2023/01/28 09:14:56;;;;;;;15.57;14.48;;;0.90;99.90;;;;;;4978942;28;20652;-48
2023/01/28 09:17:22;;;;;;;14.50;13.43;;;0.90;99.90;;;;;;4982682;28;20327;-46
2023/01/28 09:19:48;;;;;;;15.10;14.00;;;0.90;99.90;;;;;;4982682;28;20552;-45
2023/01/28 09:22:14;;;;;;;25.38;23.10;;;0.90;99.90;;;;;;4964484;28;20198;-44
2023/01/28 09:24:39;;;;;;;16.53;15.27;;;0.90;99.90;;;;;;4982349;28;20193;-45
2023/01/28 09:27:05;;;;;;;15.07;14.07;;;0.90;99.90;;;;;;4979230;28;20188;-46
2023/01/28 09:29:33;;;;;;;18.50;16.75;;;0.80;99.90;;;;;;4982015;28;20550;-46
2023/01/28 09:31:59;;;;;;;17.40;16.00;;;0.80;99.90;;;;;;4979650;28;20189;-46
2023/01/28 09:34:25;;;;;;;17.40;16.10;;;0.80;99.90;;;;;;4968025;28;20216;-48
2023/01/28 09:36:50;;;;;;;16.50;15.27;;;0.80;99.90;;;;;;4978125;28;20193;-45
2023/01/28 09:39:16;;;;;;;15.77;14.57;;;0.80;99.90;;;;;;4982588;28;20216;-49
2023/01/28 09:41:41;;;;;;;15.20;13.87;;;0.80;99.90;;;;;;4963153;28;20747;-50
2023/01/28 09:44:34;;;;;;;19.87;18.20;;;0.90;99.90;;;;;;4976639;28;20178;-49
2023/01/28 09:47:02;;;;;;;15.40;14.40;;;0.90;99.90;;;;;;4977207;28;20186;-44
2023/01/28 09:49:39;;;;;;;15.45;14.32;;;1.00;99.90;;;;;;4981822;28;20294;-45
2023/01/28 09:52:12;;;;;;;14.82;13.82;;;1.10;99.90;;;;;;4982084;28;20185;-44
2023/01/28 09:54:57;;;;;;;15.30;14.20;;;1.10;99.90;;;;;;4982024;28;20189;-45
2023/01/28 09:57:25;;;;;;;13.90;12.95;;;1.10;99.90;;;;;;4981921;28;20228;-44
2023/01/28 09:59:52;;;;;;;14.60;13.50;;;1.10;99.90;;;;;;4971629;28;20743;-46
2023/01/28 10:02:50;;;;;;;14.90;13.98;;;1.10;99.90;;;;;;4966391;28;20575;-46
2023/01/28 10:05:46;;;;;;;13.85;12.85;;;1.20;99.90;;;;;;4970221;28;20181;-44
2023/01/28 10:08:21;;;;;;;15.07;13.93;;;1.10;99.90;;;;;;4980581;28;20229;-45
2023/01/28 10:10:58;;;;;;;14.40;13.40;;;1.10;99.90;;;;;;4975022;28;20216;-44
2023/01/28 10:13:36;;;;;;;15.93;14.73;;;1.10;99.90;;;;;;4967131;28;20214;-45
2023/01/28 10:16:10;;;;;;;14.95;13.90;;;1.10;99.90;;;;;;4968130;28;20241;-43
2023/01/28 10:18:57;;;;;;;13.95;12.95;;;1.10;99.90;;;;;;4974522;28;20299;-46
2023/01/28 10:21:48;;;;;;;14.27;13.23;;;1.10;99.90;;;;;;4971126;28;20194;-47
2023/01/28 10:24:32;;;;;;;14.70;13.70;;;1.10;99.90;;;;;;4972660;28;20205;-47
2023/01/28 10:26:58;;;;;;;13.90;12.90;;;1.10;99.90;;;;;;4976437;28;20189;-45
2023/01/28 10:29:27;;;;;;;14.93;13.93;;;1.10;99.90;;;;;;4976298;28;20204;-49
2023/01/28 10:32:26;;;;;;;14.45;13.45;;;1.10;99.90;;;;;;4966610;28;20198;-48
2023/01/28 10:34:52;;;;;;;15.00;14.00;;;1.00;99.90;;;;;;4932028;28;20209;-48
2023/01/28 10:37:19;;;;;;;15.30;14.00;;;1.00;99.90;;;;;;4978461;28;20655;-43
2023/01/28 10:39:45;;;;;;;13.93;13.10;;;1.00;99.90;;;;;;4976397;28;20213;-47
2023/01/28 10:42:28;;;;;;;14.30;13.40;;;1.00;99.90;;;;;;4979606;28;20307;-48
2023/01/28 10:45:02;;;;;;;13.95;13.05;;;0.90;99.90;;;;;;4965183;28;20436;-49
2023/01/28 10:47:57;;;;;;;14.05;13.25;;;0.90;99.90;;;;;;4967154;28;20212;-49
2023/01/28 10:50:25;;;;;;;13.95;13.15;;;0.80;99.90;;;;;;4977736;28;20270;-45
2023/01/28 10:52:56;;;;;;;14.07;13.13;;;0.80;99.90;;;;;;4966070;28;20197;-45
2023/01/28 10:55:25;;;;;;;14.82;13.70;;;0.80;99.90;;;;;;4976443;28;20329;-47
2023/01/28 10:57:51;;;;;;;14.05;13.15;;;0.80;99.90;;;;;;4972719;28;20183;-45
2023/01/28 11:00:23;;;;;;;13.10;12.27;;;0.70;99.90;;;;;;4969642;28;20208;-47
2023/01/28 11:02:49;;;;;;;14.55;13.60;;;0.70;99.90;;;;;;4971101;28;20686;-49
2023/01/28 11:05:19;;;;;;;15.13;14.07;;;0.60;99.90;;;;;;4967357;28;20184;-45
2023/01/28 11:07:47;;;;;;;14.30;13.20;;;0.50;99.90;;;;;;4972573;28;20182;-49
2023/01/28 11:10:31;;;;;;;14.25;13.27;;;0.50;99.90;;;;;;4964202;28;21119;-47
2023/01/28 11:12:58;;;;;;;14.68;13.82;;;0.60;99.90;;;;;;4977174;28;20223;-45
2023/01/28 11:15:24;;;;;;;14.48;13.57;;;0.60;99.90;;;;;;4967512;28;20290;-46
2023/01/28 11:18:06;;;;;;;14.45;13.65;;;0.70;99.90;;;;;;4977947;28;20659;-52
2023/01/28 11:20:40;;;;;;;14.02;13.23;;;0.70;99.90;;;;;;4969793;28;20208;-46
2023/01/28 11:23:05;;;;;;;13.80;13.00;;;0.70;99.90;;;;;;4981238;28;20188;-46
2023/01/28 11:25:36;;;;;;;13.97;13.07;;;0.60;99.90;;;;;;4971464;28;20190;-47
2023/01/28 11:28:06;;;;;;;13.80;12.90;;;0.70;99.90;;;;;;4975073;28;20209;-48
2023/01/28 11:30:35;;;;;;;14.70;13.68;;;0.80;99.90;;;;;;4975555;28;20184;-47
2023/01/28 11:33:06;;;;;;;14.52;13.57;;;0.80;99.90;;;;;;4970250;28;20188;-45
2023/01/28 11:35:32;;;;;;;13.98;12.95;;;0.80;99.90;;;;;;4966262;28;20195;-47
2023/01/28 11:37:59;;;;;;;14.17;13.13;;;0.90;99.90;;;;;;4978676;28;20329;-47
2023/01/28 11:40:26;;;;;;;14.02;13.00;;;0.80;99.90;;;;;;4967884;28;20247;-48
2023/01/28 11:42:55;;;;;;;13.68;12.88;;;0.80;99.90;;;;;;4978134;28;20232;-49
2023/01/28 11:45:37;;;;;;;14.45;13.55;;;0.70;99.90;;;;;;4964528;28;20189;-44
2023/01/28 11:48:12;;;;;;;14.35;13.23;;;0.70;99.90;;;;;;4973321;28;20653;-46
2023/01/28 11:50:48;;;;;;;13.70;12.90;;;0.70;99.90;;;;;;4980553;28;20180;-47
2023/01/28 11:53:31;;;;;;;14.20;13.32;;;0.70;99.90;;;;;;4970169;28;20178;-47
2023/01/28 11:56:08;;;;;;;15.20;14.15;;;0.80;99.90;;;;;;4979673;28;20181;-50
2023/01/28 11:59:19;;;;;;;15.35;14.20;;;0.80;99.90;;;;;;4968645;28;20561;-49
2023/01/28 12:01:56;;;;;;;15.73;14.63;;;0.80;99.90;;;;;;4972575;28;20183;-49
2023/01/28 12:04:25;;;;;;;14.30;13.20;;;0.80;99.90;;;;;;4964262;28;20208;-49
2023/01/28 12:07:19;;;;;;;14.38;13.30;;;0.70;99.90;;;;;;4972336;28;20729;-45
2023/01/28 12:10:12;;;;;;;15.93;14.40;;;0.80;99.90;;;;;;4979776;28;20246;-45
2023/01/28 12:12:52;;;;;;;16.77;15.57;;;0.80;99.90;;;;;;4969906;28;20693;-46
2023/01/28 12:15:39;;;;;;;18.52;17.20;;;0.80;99.90;;;;;;4979181;28;20208;-45
2023/01/28 12:18:22;;;;;;;19.98;18.65;;;0.80;99.90;;;;;;4986903;28;20189;-45
2023/01/28 12:21:24;;;;;;;15.35;14.35;;;0.80;99.90;;;;;;4983381;28;20327;-47
2023/01/28 12:24:26;;;;;;;15.02;14.02;;;0.90;99.90;;;;;;4948585;28;20284;-46
2023/01/28 12:26:55;;;;;;;13.80;12.95;;;0.90;99.90;;;;;;4986897;28;21444;-48
2023/01/28 12:29:26;;;;;;;14.05;13.15;;;1.00;99.90;;;;;;4984497;28;20294;-47
2023/01/28 12:32:00;;;;;;;16.48;15.48;;;0.90;99.90;;;;;;4985323;28;20188;-47
2023/01/28 12:34:55;;;;;;;14.27;13.48;;;0.90;99.90;;;;;;4980038;28;20181;-47
2023/01/28 12:37:51;;;;;;;16.73;15.63;;;0.90;99.90;;;;;;4986738;28;20373;-47
2023/01/28 12:40:55;;;;;;;12.95;12.15;;;0.90;99.90;;;;;;4980032;28;20204;-44
2023/01/28 12:43:29;;;;;;;13.48;12.50;;;0.80;99.90;;;;;;4981222;28;20205;-44
2023/01/28 12:45:59;;;;;;;13.95;13.20;;;0.70;99.90;;;;;;4967915;28;20209;-45
2023/01/28 12:48:43;;;;;;;15.13;14.23;;;0.70;99.90;;;;;;4976923;28;20189;-47
2023/01/28 12:51:20;;;;;;;15.10;14.05;;;0.80;99.90;;;;;;4975277;28;20807;-46
2023/01/28 12:54:05;;;;;;;15.32;13.98;;;0.90;99.90;;;;;;4983905;28;20193;-47
2023/01/28 12:56:37;;;;;;;14.85;13.90;;;0.80;99.90;;;;;;4981014;28;20181;-47
2023/01/28 12:59:18;;;;;;;13.13;12.43;;;0.80;99.90;;;;;;4975644;28;20317;-47
2023/01/28 13:01:52;;;;;;;13.00;12.20;;;0.80;99.90;;;;;;4981905;28;20697;-45
2023/01/28 13:04:30;;;;;;;12.45;11.75;;;0.80;99.90;;;;;;4973358;28;20218;-45
2023/01/28 13:07:05;;;;;;;13.57;12.80;;;0.80;99.90;;;;;;4982348;28;20186;-49
2023/01/28 13:09:35;;;;;;;13.52;12.60;;;0.80;99.90;;;;;;4973989;28;20231;-47
2023/01/28 13:12:02;;;;;;;14.60;13.48;;;0.80;99.90;;;;;;4976106;28;20186;-48
2023/01/28 13:14:30;;;;;;;13.65;12.85;;;0.80;99.90;;;;;;4971649;28;20204;-46
2023/01/28 13:17:08;;;;;;;15.25;14.15;;;0.80;99.90;;;;;;4980909;28;20231;-45
2023/01/28 13:19:41;;;;;;;13.70;12.85;;;0.90;99.90;;;;;;4974576;28;21103;-46
2023/01/28 13:22:12;;;;;;;13.85;13.05;;;0.90;99.90;;;;;;4977696;28;20197;-49
2023/01/28 13:24:38;;;;;;;14.43;13.45;;;0.90;99.90;;;;;;4983834;28;20191;-48
2023/01/28 13:27:20;;;;;;;13.50;12.67;;;0.90;99.90;;;;;;4979692;28;20198;-47
2023/01/28 13:29:48;;;;;;;13.70;12.90;;;0.90;99.90;;;;;;4982936;28;20458;-47